createdAt,value
2023-03-31T00:00:24.059Z,23.20
2023-03-31T00:03:46.659Z,21.80
2023-03-31T00:06:50.938Z,22.80
2023-03-31T00:10:07.096Z,21.70
2023-03-31T00:13:20.033Z,19.30
2023-03-31T00:16:23.754Z,18.70
2023-03-31T00:19:29.099Z,20.10
2023-03-31T00:22:32.133Z,19.40
2023-03-31T00:25:35.454Z,18.20
2023-03-31T00:28:38.495Z,21.30
2023-03-31T00:31:42.101Z,21.30
2023-03-31T00:34:46.298Z,24.10
2023-03-31T00:37:49.349Z,22.10
2023-03-31T00:40:53.932Z,23.60
2023-03-31T00:44:27.770Z,23.40
2023-03-31T00:47:31.127Z,24.30
2023-03-31T00:50:41.318Z,20.50
2023-03-31T00:53:51.950Z,22.60
2023-03-31T00:56:58.723Z,20.00
2023-03-31T01:00:14.669Z,22.30
2023-03-31T01:03:18.595Z,20.20
2023-03-31T01:06:23.756Z,23.40
2023-03-31T01:09:34.874Z,21.20
2023-03-31T01:12:41.259Z,20.00
2023-03-31T01:15:44.655Z,19.30
2023-03-31T01:18:50.178Z,20.90
2023-03-31T01:22:10.583Z,20.50
2023-03-31T01:26:07.932Z,18.60
2023-03-31T01:29:20.141Z,19.40
2023-03-31T01:32:44.232Z,19.20
2023-03-31T01:36:21.639Z,17.70
2023-03-31T01:39:46.210Z,19.80
2023-03-31T01:43:14.985Z,19.60
2023-03-31T01:46:29.115Z,19.40
2023-03-31T01:49:52.197Z,21.10
2023-03-31T01:53:11.280Z,20.30
2023-03-31T01:56:21.622Z,21.40
2023-03-31T01:59:38.019Z,19.80
2023-03-31T02:02:41.197Z,18.60
2023-03-31T02:06:11.142Z,19.10
2023-03-31T02:09:19.687Z,19.70
2023-03-31T02:12:27.746Z,17.20
2023-03-31T02:15:36.506Z,18.70
2023-03-31T02:18:41.852Z,16.30
2023-03-31T02:21:50.103Z,18.40
2023-03-31T02:24:54.912Z,18.10
2023-03-31T02:28:07.809Z,18.70
2023-03-31T02:31:36.737Z,18.70
2023-03-31T02:34:43.003Z,14.70
2023-03-31T02:37:46.803Z,15.30
2023-03-31T02:40:50.088Z,15.50
2023-03-31T02:43:53.299Z,13.10
2023-03-31T02:46:58.010Z,17.10
2023-03-31T02:50:03.570Z,14.20
2023-03-31T02:53:59.820Z,17.20
2023-03-31T02:57:15.496Z,15.90
2023-03-31T03:00:40.640Z,13.40
2023-03-31T03:04:11.128Z,17.60
2023-03-31T03:07:25.016Z,15.10
2023-03-31T03:10:41.635Z,15.10
2023-03-31T03:13:52.874Z,13.60
2023-03-31T03:17:12.007Z,14.70
2023-03-31T03:20:16.313Z,13.60
2023-03-31T03:23:19.466Z,12.20
2023-03-31T03:26:24.482Z,15.50
2023-03-31T03:29:28.761Z,13.00
2023-03-31T03:32:33.820Z,12.70
2023-03-31T03:35:37.062Z,11.20
2023-03-31T03:38:40.245Z,12.10
2023-03-31T03:41:43.302Z,11.10
2023-03-31T03:44:46.379Z,11.70
2023-03-31T03:47:49.523Z,14.00
2023-03-31T03:50:54.286Z,10.50
2023-03-31T03:53:57.504Z,10.50
2023-03-31T03:57:00.765Z,10.90
2023-03-31T04:00:10.067Z,10.50
2023-03-31T04:03:15.270Z,10.60
2023-03-31T04:06:18.605Z,10.70
2023-03-31T04:09:21.741Z,9.20
2023-03-31T04:12:24.820Z,29.30
2023-03-31T04:15:27.891Z,14.80
2023-03-31T04:18:31.035Z,11.80
2023-03-31T04:21:37.305Z,14.60
2023-03-31T04:24:40.449Z,12.20
2023-03-31T04:27:55.747Z,11.90
2023-03-31T04:30:58.971Z,11.30
2023-03-31T04:34:06.717Z,15.90
2023-03-31T04:37:10.721Z,10.70
2023-03-31T04:40:13.967Z,10.80
2023-03-31T04:43:19.172Z,11.90
2023-03-31T04:46:22.697Z,11.80
2023-03-31T04:49:36.127Z,14.60
2023-03-31T04:52:42.356Z,13.10
2023-03-31T04:55:45.545Z,26.20
2023-03-31T04:58:48.676Z,20.00
2023-03-31T05:01:51.776Z,18.00
2023-03-31T05:04:54.810Z,18.40
2023-03-31T05:07:57.912Z,25.40
2023-03-31T05:11:04.565Z,17.60
2023-03-31T05:14:07.692Z,21.20
2023-03-31T05:17:11.441Z,15.10
2023-03-31T05:20:14.754Z,17.40
2023-03-31T05:23:17.849Z,17.50
2023-03-31T05:26:23.068Z,18.10
2023-03-31T05:29:26.401Z,17.80
2023-03-31T05:32:29.686Z,24.70
2023-03-31T05:35:32.855Z,21.80
2023-03-31T05:38:36.585Z,25.50
2023-03-31T05:41:40.575Z,19.70
2023-03-31T05:44:43.613Z,22.00
2023-03-31T05:47:47.484Z,20.80
2023-03-31T05:50:50.961Z,22.40
2023-03-31T05:53:54.225Z,23.30
2023-03-31T05:56:57.355Z,20.30
2023-03-31T06:00:00.708Z,21.30
2023-03-31T06:03:03.950Z,21.60
2023-03-31T06:06:08.705Z,19.10
2023-03-31T06:09:15.110Z,16.20
2023-03-31T06:12:18.268Z,16.50
2023-03-31T06:15:21.460Z,17.10
2023-03-31T06:18:28.701Z,16.00
2023-03-31T06:21:31.916Z,16.40
2023-03-31T06:24:35.075Z,26.40
2023-03-31T06:27:38.204Z,16.00
2023-03-31T06:30:42.046Z,17.60
2023-03-31T06:33:46.599Z,15.00
2023-03-31T06:36:49.843Z,18.10
2023-03-31T06:39:53.571Z,16.70
2023-03-31T06:42:56.828Z,15.30
2023-03-31T06:46:00.222Z,14.40
2023-03-31T06:49:03.441Z,13.80
2023-03-31T06:52:06.783Z,15.80
2023-03-31T06:55:10.710Z,18.00
2023-03-31T06:58:14.111Z,17.40
2023-03-31T07:01:17.357Z,16.50
2023-03-31T07:04:20.838Z,13.00
2023-03-31T07:07:24.059Z,14.00
2023-03-31T07:10:29.851Z,11.80
2023-03-31T07:13:33.032Z,11.60
2023-03-31T07:16:39.025Z,13.70
2023-03-31T07:19:42.432Z,15.20
2023-03-31T07:22:47.640Z,14.50
2023-03-31T07:25:50.964Z,15.40
2023-03-31T07:28:56.762Z,20.00
2023-03-31T07:32:00.001Z,18.60
2023-03-31T07:35:03.511Z,26.90
2023-03-31T07:38:11.159Z,11.30
2023-03-31T07:41:16.839Z,17.90
2023-03-31T07:44:21.869Z,11.70
2023-03-31T07:47:25.894Z,11.30
2023-03-31T07:50:29.166Z,12.80
2023-03-31T07:53:34.458Z,10.20
2023-03-31T07:56:37.810Z,11.00
2023-03-31T07:59:41.265Z,8.10
2023-03-31T08:02:44.829Z,9.30
2023-03-31T08:05:52.516Z,9.10
2023-03-31T08:08:56.488Z,9.00
2023-03-31T08:11:59.646Z,9.20
2023-03-31T08:15:03.207Z,8.70
2023-03-31T08:18:07.003Z,6.40
2023-03-31T08:21:10.431Z,8.20
2023-03-31T08:24:13.686Z,7.30
2023-03-31T08:27:17.144Z,7.00
2023-03-31T08:30:20.674Z,5.20
2023-03-31T08:33:24.001Z,7.90
2023-03-31T08:36:27.649Z,8.40
2023-03-31T08:39:31.245Z,6.70
2023-03-31T08:42:47.642Z,7.40
2023-03-31T08:45:51.063Z,6.30
2023-03-31T08:48:59.615Z,6.90
2023-03-31T08:52:08.731Z,10.90
2023-03-31T08:55:26.010Z,8.20
2023-03-31T08:58:51.583Z,6.10
2023-03-31T09:02:01.227Z,9.10
2023-03-31T09:05:19.350Z,6.90
2023-03-31T09:08:43.127Z,9.20
2023-03-31T09:11:55.789Z,6.20
2023-03-31T09:15:09.083Z,6.40
2023-03-31T09:18:25.452Z,7.60
2023-03-31T09:21:34.363Z,9.80
2023-03-31T09:24:52.713Z,8.70
2023-03-31T09:28:00.053Z,8.00
2023-03-31T09:31:15.063Z,9.80
2023-03-31T09:34:31.891Z,14.80
2023-03-31T09:37:35.159Z,7.10
2023-03-31T09:40:38.542Z,10.50
2023-03-31T09:43:43.475Z,6.20
2023-03-31T09:46:46.933Z,7.20
2023-03-31T09:49:54.140Z,7.60
2023-03-31T09:53:06.142Z,5.90
2023-03-31T09:56:11.661Z,6.50
2023-03-31T09:59:19.018Z,6.80
2023-03-31T10:02:34.713Z,9.40
2023-03-31T10:05:41.576Z,6.70
2023-03-31T10:08:59.687Z,7.60
2023-03-31T10:12:07.307Z,5.50
2023-03-31T10:15:42.907Z,7.30
2023-03-31T10:18:46.125Z,8.60
2023-03-31T10:21:57.367Z,7.80
2023-03-31T10:25:17.045Z,6.80
2023-03-31T10:28:21.910Z,8.60
2023-03-31T10:31:36.101Z,6.70
2023-03-31T10:34:42.913Z,7.10
2023-03-31T10:37:48.688Z,6.10
2023-03-31T10:40:55.287Z,7.50
2023-03-31T10:44:00.831Z,8.10
2023-03-31T10:47:22.002Z,8.00
2023-03-31T10:50:31.294Z,11.00
2023-03-31T10:54:03.481Z,7.60
2023-03-31T10:57:07.514Z,7.00
2023-03-31T11:00:49.608Z,10.50
2023-03-31T11:04:07.831Z,7.10
2023-03-31T11:07:14.071Z,8.70
2023-03-31T11:10:41.638Z,7.70
2023-03-31T11:13:54.152Z,7.10
2023-03-31T11:17:19.949Z,8.50
2023-03-31T11:20:52.088Z,6.90
2023-03-31T11:24:15.258Z,8.90
2023-03-31T11:27:30.324Z,6.50
2023-03-31T11:30:58.306Z,12.50
2023-03-31T11:34:31.730Z,10.50
2023-03-31T11:37:53.548Z,9.10
2023-03-31T11:41:22.906Z,6.20
2023-03-31T11:44:31.080Z,10.80
2023-03-31T11:47:38.002Z,8.90
2023-03-31T11:50:47.028Z,6.20
2023-03-31T11:53:53.109Z,7.70
2023-03-31T11:56:56.854Z,5.70
2023-03-31T12:00:25.382Z,9.00
2023-03-31T12:03:46.856Z,5.90
2023-03-31T12:06:52.396Z,7.30
2023-03-31T12:10:07.754Z,9.90
2023-03-31T12:13:41.659Z,7.80
2023-03-31T12:17:12.536Z,7.50
2023-03-31T12:20:33.332Z,7.70
2023-03-31T12:23:41.881Z,6.90
2023-03-31T12:27:02.884Z,7.10
2023-03-31T12:30:14.991Z,6.30
2023-03-31T12:33:24.653Z,8.10
2023-03-31T12:36:45.608Z,8.80
2023-03-31T12:40:26.920Z,8.40
2023-03-31T12:43:44.845Z,11.60
2023-03-31T12:47:04.133Z,8.90
2023-03-31T12:50:12.967Z,10.40
2023-03-31T12:53:37.225Z,8.90
2023-03-31T12:57:04.625Z,6.00
2023-03-31T13:00:13.629Z,7.70
2023-03-31T13:03:39.099Z,8.20
2023-03-31T13:06:43.584Z,7.80
2023-03-31T13:09:53.054Z,7.90
2023-03-31T13:13:22.529Z,9.20
2023-03-31T13:16:28.443Z,9.30
2023-03-31T13:19:35.867Z,7.40
2023-03-31T13:22:45.952Z,6.00
2023-03-31T13:25:52.747Z,7.20
2023-03-31T13:29:09.582Z,4.20
2023-03-31T13:32:24.732Z,7.30
2023-03-31T13:35:31.008Z,7.10
2023-03-31T13:39:07.618Z,6.30
2023-03-31T13:42:37.662Z,7.70
2023-03-31T13:45:56.215Z,5.50
2023-03-31T13:49:35.388Z,11.50
2023-03-31T13:53:06.154Z,5.20
2023-03-31T13:56:27.096Z,8.40
2023-03-31T14:00:12.690Z,6.90
2023-03-31T14:03:44.262Z,4.30
2023-03-31T14:06:53.836Z,9.60
2023-03-31T14:09:59.649Z,5.30
2023-03-31T14:13:12.288Z,7.50
2023-03-31T14:16:18.263Z,7.90
2023-03-31T14:19:56.710Z,9.50
2023-03-31T14:23:18.325Z,6.50
2023-03-31T14:26:46.838Z,6.60
2023-03-31T14:30:23.530Z,9.50
2023-03-31T14:33:35.420Z,16.60
2023-03-31T14:37:00.343Z,8.80
2023-03-31T14:40:05.070Z,6.60
2023-03-31T14:43:18.831Z,9.00
2023-03-31T14:46:22.783Z,9.10
2023-03-31T14:49:28.979Z,8.90
2023-03-31T14:52:34.088Z,8.10
2023-03-31T14:55:54.354Z,17.60
2023-03-31T14:59:02.540Z,13.10
2023-03-31T15:02:06.631Z,11.40
2023-03-31T15:05:21.482Z,12.10
2023-03-31T15:08:25.953Z,10.40
2023-03-31T15:11:31.383Z,11.60
2023-03-31T15:14:46.833Z,12.70
2023-03-31T15:17:51.545Z,18.30
2023-03-31T15:20:54.846Z,19.60
2023-03-31T15:23:58.704Z,20.20
2023-03-31T15:27:08.581Z,23.00
2023-03-31T15:30:22.115Z,17.90
2023-03-31T15:33:36.687Z,17.50
2023-03-31T15:39:48.442Z,24.00
2023-03-31T15:43:24.295Z,26.40
2023-03-31T15:46:38.692Z,24.30
2023-03-31T15:49:53.495Z,26.00
2023-03-31T15:52:58.497Z,30.20
2023-03-31T15:56:01.895Z,28.20
2023-03-31T15:59:06.973Z,27.90
2023-03-31T16:02:17.718Z,30.70
2023-03-31T16:05:54.407Z,27.00
2023-03-31T16:09:06.798Z,24.40
2023-03-31T16:12:30.718Z,53.40
2023-03-31T16:15:50.175Z,31.60
2023-03-31T16:19:06.357Z,29.40
2023-03-31T16:22:16.248Z,30.70
2023-03-31T16:25:23.155Z,32.60
2023-03-31T16:28:30.197Z,34.10
2023-03-31T16:31:39.646Z,35.20
2023-03-31T16:35:00.638Z,36.40
2023-03-31T16:38:08.196Z,41.20
2023-03-31T16:41:12.384Z,38.70
2023-03-31T16:44:15.554Z,39.50
2023-03-31T16:47:31.622Z,38.70
2023-03-31T16:50:38.400Z,39.70
2023-03-31T16:53:41.941Z,37.70
2023-03-31T16:56:50.172Z,32.50
2023-03-31T16:59:53.418Z,34.60
2023-03-31T17:02:57.978Z,44.30
2023-03-31T17:06:06.588Z,43.10
2023-03-31T17:09:09.979Z,39.50
2023-03-31T17:12:13.263Z,11.80
2023-03-31T17:15:16.937Z,5.10
2023-03-31T17:18:20.141Z,6.40
2023-03-31T17:21:23.769Z,10.70
2023-03-31T17:24:27.488Z,9.30
2023-03-31T17:27:30.981Z,7.40
2023-03-31T17:30:36.511Z,5.50
2023-03-31T17:33:40.281Z,5.70
2023-03-31T17:36:44.545Z,3.60
2023-03-31T17:39:48.241Z,9.70
2023-03-31T17:42:51.553Z,11.00
2023-03-31T17:46:02.226Z,8.70
2023-03-31T17:49:05.813Z,9.60
2023-03-31T17:52:09.073Z,4.90
2023-03-31T17:55:12.683Z,7.80
2023-03-31T17:58:16.158Z,5.20
2023-03-31T18:01:19.387Z,6.80
2023-03-31T18:04:22.772Z,8.40
2023-03-31T18:07:25.953Z,7.90
2023-03-31T18:10:29.531Z,10.20
2023-03-31T18:13:34.903Z,15.10
2023-03-31T18:16:38.154Z,9.50
2023-03-31T18:19:43.733Z,8.00
2023-03-31T18:22:47.791Z,7.40
2023-03-31T18:25:51.789Z,9.20
2023-03-31T18:28:55.534Z,9.00
2023-03-31T18:31:58.902Z,7.20
2023-03-31T18:35:02.565Z,6.00
2023-03-31T18:38:05.862Z,8.30
2023-03-31T18:41:10.003Z,8.10
2023-03-31T18:44:16.036Z,8.60
2023-03-31T18:47:20.993Z,6.80
2023-03-31T18:50:24.162Z,6.90
2023-03-31T18:53:27.970Z,7.30
2023-03-31T18:56:31.589Z,10.10
2023-03-31T18:59:34.715Z,15.80
2023-03-31T19:02:37.845Z,13.70
2023-03-31T19:05:41.195Z,15.40
2023-03-31T19:08:44.253Z,17.10
2023-03-31T19:11:47.524Z,18.30
2023-03-31T19:14:50.668Z,15.30
2023-03-31T19:17:54.161Z,15.70
2023-03-31T19:20:59.427Z,13.50
2023-03-31T19:24:02.835Z,16.50
2023-03-31T19:27:06.521Z,20.70
2023-03-31T19:30:18.189Z,24.10
2023-03-31T19:33:21.341Z,21.50
2023-03-31T19:36:24.478Z,28.80
2023-03-31T19:39:28.258Z,25.60
2023-03-31T19:42:33.396Z,28.40
2023-03-31T19:45:37.478Z,27.70
2023-03-31T19:48:41.234Z,26.60
2023-03-31T19:51:44.363Z,25.10
2023-03-31T19:54:48.048Z,23.20
2023-03-31T19:57:51.316Z,19.40
2023-03-31T20:00:56.049Z,21.90
2023-03-31T20:03:59.274Z,27.90
2023-03-31T20:07:03.354Z,26.10
2023-03-31T20:10:07.810Z,27.30
2023-03-31T20:13:11.394Z,28.50
2023-03-31T20:16:20.331Z,41.70
2023-03-31T20:19:23.508Z,47.50
2023-03-31T20:22:26.731Z,58.00
2023-03-31T20:25:30.139Z,55.50
2023-03-31T20:28:34.468Z,49.80
2023-03-31T20:31:40.068Z,51.60
2023-03-31T20:34:43.260Z,52.70
2023-03-31T20:37:46.589Z,51.80
2023-03-31T20:40:49.784Z,44.30
2023-03-31T20:43:53.853Z,47.40
2023-03-31T20:46:59.140Z,30.60
2023-03-31T20:50:03.007Z,27.50
2023-03-31T20:53:06.124Z,26.20
2023-03-31T20:56:17.799Z,30.40
2023-03-31T20:59:21.700Z,32.50
2023-03-31T21:02:25.546Z,31.10
2023-03-31T21:05:29.666Z,32.10
2023-03-31T21:08:33.393Z,30.40
2023-03-31T21:11:36.541Z,26.90
2023-03-31T21:14:39.897Z,26.10
2023-03-31T21:17:43.151Z,25.00
2023-03-31T21:21:11.216Z,24.20
2023-03-31T21:24:14.377Z,21.60
2023-03-31T21:27:17.725Z,22.20
2023-03-31T21:30:21.464Z,19.10
2023-03-31T21:33:25.331Z,20.90
2023-03-31T21:36:29.267Z,20.00
2023-03-31T21:39:32.290Z,20.90
2023-03-31T21:42:36.337Z,16.80
2023-03-31T21:45:39.869Z,17.90
2023-03-31T21:48:45.074Z,17.70
2023-03-31T21:51:49.046Z,19.90
2023-03-31T21:54:52.545Z,17.60
2023-03-31T21:57:55.648Z,16.10
2023-03-31T22:01:04.089Z,16.70
2023-03-31T22:04:08.552Z,14.80
2023-03-31T22:07:14.422Z,14.60
2023-03-31T22:10:17.552Z,14.80
2023-03-31T22:13:22.308Z,14.40
2023-03-31T22:16:25.616Z,14.80
2023-03-31T22:19:28.813Z,16.10
2023-03-31T22:22:31.997Z,11.50
2023-03-31T22:25:35.460Z,9.00
2023-03-31T22:28:38.642Z,10.50
2023-03-31T22:31:42.033Z,11.40
2023-03-31T22:34:46.040Z,10.60
2023-03-31T22:37:49.140Z,11.90
2023-03-31T22:40:52.188Z,10.00
2023-03-31T22:43:55.502Z,11.10
2023-03-31T22:46:58.614Z,7.80
2023-03-31T22:50:01.790Z,6.40
2023-03-31T22:53:05.042Z,7.70
2023-03-31T22:56:11.895Z,10.80
2023-03-31T22:59:15.953Z,14.40
2023-03-31T23:02:19.134Z,15.50
2023-03-31T23:05:24.292Z,9.40
2023-03-31T23:08:27.464Z,7.30
2023-03-31T23:11:30.612Z,7.20
2023-03-31T23:14:33.679Z,7.10
2023-03-31T23:17:37.055Z,7.00
2023-03-31T23:20:41.006Z,7.30
2023-03-31T23:23:44.035Z,10.10
2023-03-31T23:26:47.390Z,8.20
2023-03-31T23:29:50.579Z,8.70
2023-03-31T23:32:55.197Z,10.80
2023-03-31T23:36:00.990Z,9.20
2023-03-31T23:39:06.636Z,10.40
2023-03-31T23:42:12.590Z,8.50
2023-03-31T23:45:15.893Z,6.70
2023-03-31T23:48:19.345Z,6.20
2023-03-31T23:51:22.573Z,5.70
2023-03-31T23:54:25.916Z,8.40
2023-03-31T23:57:29.189Z,4.90
